sensor_id;sensor_type;location;lat;lon;timestamp;pressure;altitude;pressure_sealevel;temperature;humidity
76074;BME280;64776;42.636;24.358;2023-07-29T00:00:51;90193.19;;;11.65;68.60
76074;BME280;64776;42.636;24.358;2023-07-29T00:03:53;90192.59;;;11.50;68.90
76074;BME280;64776;42.636;24.358;2023-07-29T00:06:54;90197.34;;;11.34;69.55
76074;BME280;64776;42.636;24.358;2023-07-29T00:09:56;90187.66;;;11.37;68.96
76074;BME280;64776;42.636;24.358;2023-07-29T00:12:57;90191.00;;;11.32;69.24
76074;BME280;64776;42.636;24.358;2023-07-29T00:15:57;90189.41;;;11.14;68.82
76074;BME280;64776;42.636;24.358;2023-07-29T00:18:58;90194.81;;;11.25;69.44
76074;BME280;64776;42.636;24.358;2023-07-29T00:21:59;90198.53;;;11.33;68.27
76074;BME280;64776;42.636;24.358;2023-07-29T00:25:01;90191.75;;;11.32;68.87
76074;BME280;64776;42.636;24.358;2023-07-29T00:28:04;90193.84;;;11.23;69.60
76074;BME280;64776;42.636;24.358;2023-07-29T00:31:04;90188.97;;;11.21;69.04
76074;BME280;64776;42.636;24.358;2023-07-29T00:34:05;90189.44;;;11.20;68.63
76074;BME280;64776;42.636;24.358;2023-07-29T00:37:06;90187.28;;;11.24;69.50
76074;BME280;64776;42.636;24.358;2023-07-29T00:40:14;90175.34;;;11.19;69.27
76074;BME280;64776;42.636;24.358;2023-07-29T00:43:15;90176.31;;;11.16;69.25
76074;BME280;64776;42.636;24.358;2023-07-29T00:46:16;90170.72;;;11.14;69.44
76074;BME280;64776;42.636;24.358;2023-07-29T00:49:17;90173.31;;;11.09;69.21
76074;BME280;64776;42.636;24.358;2023-07-29T00:52:18;90175.84;;;10.92;69.67
76074;BME280;64776;42.636;24.358;2023-07-29T00:55:21;90179.81;;;10.71;70.33
76074;BME280;64776;42.636;24.358;2023-07-29T00:58:22;90193.31;;;10.68;70.13
76074;BME280;64776;42.636;24.358;2023-07-29T01:01:22;90189.47;;;10.69;70.67
76074;BME280;64776;42.636;24.358;2023-07-29T01:04:23;90196.81;;;10.74;70.16
76074;BME280;64776;42.636;24.358;2023-07-29T01:07:30;90193.41;;;10.73;70.31
76074;BME280;64776;42.636;24.358;2023-07-29T01:10:40;90191.34;;;10.62;70.50
76074;BME280;64776;42.636;24.358;2023-07-29T01:13:50;90185.50;;;10.58;70.81
76074;BME280;64776;42.636;24.358;2023-07-29T01:16:57;90184.50;;;10.56;70.78
76074;BME280;64776;42.636;24.358;2023-07-29T01:20:02;90189.03;;;10.50;70.49
76074;BME280;64776;42.636;24.358;2023-07-29T01:23:05;90190.88;;;10.38;70.94
76074;BME280;64776;42.636;24.358;2023-07-29T01:26:07;90185.88;;;10.26;71.86
76074;BME280;64776;42.636;24.358;2023-07-29T01:29:08;90188.78;;;10.28;71.49
76074;BME280;64776;42.636;24.358;2023-07-29T01:32:11;90188.31;;;10.29;71.63
76074;BME280;64776;42.636;24.358;2023-07-29T01:35:21;90190.47;;;10.25;71.05
76074;BME280;64776;42.636;24.358;2023-07-29T01:38:28;90190.94;;;10.24;71.21
76074;BME280;64776;42.636;24.358;2023-07-29T01:41:31;90190.66;;;10.22;71.83
76074;BME280;64776;42.636;24.358;2023-07-29T01:44:32;90182.13;;;10.18;71.89
76074;BME280;64776;42.636;24.358;2023-07-29T01:47:34;90184.91;;;10.09;72.40
76074;BME280;64776;42.636;24.358;2023-07-29T01:50:34;90179.66;;;10.14;71.72
76074;BME280;64776;42.636;24.358;2023-07-29T01:53:35;90188.88;;;10.13;71.88
76074;BME280;64776;42.636;24.358;2023-07-29T01:56:37;90200.06;;;10.17;71.18
76074;BME280;64776;42.636;24.358;2023-07-29T01:59:38;90188.69;;;10.02;71.85
76074;BME280;64776;42.636;24.358;2023-07-29T02:02:39;90183.56;;;9.99;71.69
76074;BME280;64776;42.636;24.358;2023-07-29T02:05:40;90188.63;;;9.97;71.56
76074;BME280;64776;42.636;24.358;2023-07-29T02:08:41;90182.03;;;9.92;72.10
76074;BME280;64776;42.636;24.358;2023-07-29T02:11:43;90186.81;;;9.88;72.98
76074;BME280;64776;42.636;24.358;2023-07-29T02:14:43;90176.91;;;9.89;72.76
76074;BME280;64776;42.636;24.358;2023-07-29T02:17:44;90183.81;;;9.80;72.96
76074;BME280;64776;42.636;24.358;2023-07-29T02:20:45;90180.91;;;9.78;73.01
76074;BME280;64776;42.636;24.358;2023-07-29T02:23:46;90187.94;;;9.81;73.13
76074;BME280;64776;42.636;24.358;2023-07-29T02:26:48;90178.50;;;9.80;72.08
76074;BME280;64776;42.636;24.358;2023-07-29T02:29:49;90178.22;;;9.78;72.83
76074;BME280;64776;42.636;24.358;2023-07-29T02:32:49;90170.94;;;9.79;72.80
76074;BME280;64776;42.636;24.358;2023-07-29T02:35:50;90172.09;;;9.72;72.47
76074;BME280;64776;42.636;24.358;2023-07-29T02:38:51;90175.22;;;9.71;72.37
76074;BME280;64776;42.636;24.358;2023-07-29T02:41:53;90178.59;;;9.71;73.28
76074;BME280;64776;42.636;24.358;2023-07-29T02:44:54;90180.41;;;9.60;72.30
76074;BME280;64776;42.636;24.358;2023-07-29T02:47:55;90183.50;;;9.58;72.94
76074;BME280;64776;42.636;24.358;2023-07-29T02:50:56;90180.56;;;9.56;72.98
76074;BME280;64776;42.636;24.358;2023-07-29T02:53:57;90185.38;;;9.52;73.34
76074;BME280;64776;42.636;24.358;2023-07-29T02:56:59;90191.22;;;9.56;73.53
76074;BME280;64776;42.636;24.358;2023-07-29T03:00:00;90197.09;;;9.60;72.97
76074;BME280;64776;42.636;24.358;2023-07-29T03:03:00;90192.31;;;9.64;72.69
76074;BME280;64776;42.636;24.358;2023-07-29T03:06:02;90191.91;;;9.51;73.07
76074;BME280;64776;42.636;24.358;2023-07-29T03:09:03;90198.81;;;9.43;73.32
76074;BME280;64776;42.636;24.358;2023-07-29T03:12:06;90196.41;;;9.45;73.11
76074;BME280;64776;42.636;24.358;2023-07-29T03:15:07;90197.44;;;9.33;74.32
76074;BME280;64776;42.636;24.358;2023-07-29T03:18:08;90199.47;;;9.24;73.91
76074;BME280;64776;42.636;24.358;2023-07-29T03:21:10;90202.97;;;9.15;73.96
76074;BME280;64776;42.636;24.358;2023-07-29T03:24:11;90196.81;;;9.09;74.82
76074;BME280;64776;42.636;24.358;2023-07-29T03:27:13;90200.69;;;9.08;74.53
76074;BME280;64776;42.636;24.358;2023-07-29T03:30:14;90197.94;;;9.02;75.53
76074;BME280;64776;42.636;24.358;2023-07-29T03:33:14;90201.16;;;9.07;75.70
76074;BME280;64776;42.636;24.358;2023-07-29T03:36:15;90195.63;;;9.10;74.40
76074;BME280;64776;42.636;24.358;2023-07-29T03:39:16;90199.75;;;9.11;75.17
76074;BME280;64776;42.636;24.358;2023-07-29T03:42:18;90193.88;;;9.22;74.96
76074;BME280;64776;42.636;24.358;2023-07-29T03:45:19;90193.88;;;9.22;74.60
76074;BME280;64776;42.636;24.358;2023-07-29T03:48:20;90206.91;;;9.20;75.28
76074;BME280;64776;42.636;24.358;2023-07-29T03:51:20;90204.34;;;9.25;74.89
76074;BME280;64776;42.636;24.358;2023-07-29T03:54:21;90205.16;;;9.31;74.91
76074;BME280;64776;42.636;24.358;2023-07-29T03:57:23;90201.75;;;9.31;73.87
76074;BME280;64776;42.636;24.358;2023-07-29T04:00:24;90201.03;;;9.30;74.80
76074;BME280;64776;42.636;24.358;2023-07-29T04:03:25;90194.78;;;9.33;73.78
76074;BME280;64776;42.636;24.358;2023-07-29T04:06:26;90197.19;;;9.31;74.89
76074;BME280;64776;42.636;24.358;2023-07-29T04:09:27;90200.81;;;9.34;74.20
76074;BME280;64776;42.636;24.358;2023-07-29T04:12:30;90203.38;;;9.43;74.56
76074;BME280;64776;42.636;24.358;2023-07-29T04:15:30;90205.50;;;9.39;74.88
76074;BME280;64776;42.636;24.358;2023-07-29T04:18:31;90202.38;;;9.40;74.35
76074;BME280;64776;42.636;24.358;2023-07-29T04:21:32;90207.22;;;9.42;73.97
76074;BME280;64776;42.636;24.358;2023-07-29T04:24:33;90199.50;;;9.58;74.57
76074;BME280;64776;42.636;24.358;2023-07-29T04:27:35;90204.59;;;9.76;73.79
76074;BME280;64776;42.636;24.358;2023-07-29T04:30:37;90200.34;;;9.84;73.73
76074;BME280;64776;42.636;24.358;2023-07-29T04:33:37;90198.16;;;10.03;72.44
76074;BME280;64776;42.636;24.358;2023-07-29T04:36:38;90204.13;;;10.13;72.77
76074;BME280;64776;42.636;24.358;2023-07-29T04:39:39;90209.19;;;10.31;72.24
76074;BME280;64776;42.636;24.358;2023-07-29T04:42:41;90207.38;;;10.42;72.25
76074;BME280;64776;42.636;24.358;2023-07-29T04:45:43;90215.06;;;10.55;71.61
76074;BME280;64776;42.636;24.358;2023-07-29T04:48:43;90205.22;;;10.67;72.11
76074;BME280;64776;42.636;24.358;2023-07-29T04:51:44;90214.84;;;10.84;71.46
76074;BME280;64776;42.636;24.358;2023-07-29T04:54:45;90213.63;;;11.11;71.78
76074;BME280;64776;42.636;24.358;2023-07-29T04:57:47;90201.91;;;11.28;71.05
76074;BME280;64776;42.636;24.358;2023-07-29T05:00:48;90196.25;;;11.52;69.73
76074;BME280;64776;42.636;24.358;2023-07-29T05:03:49;90201.56;;;11.78;69.01
76074;BME280;64776;42.636;24.358;2023-07-29T05:06:51;90202.16;;;11.98;68.18
76074;BME280;64776;42.636;24.358;2023-07-29T05:09:51;90195.69;;;12.16;67.06
76074;BME280;64776;42.636;24.358;2023-07-29T05:12:54;90200.69;;;12.45;66.26
76074;BME280;64776;42.636;24.358;2023-07-29T05:15:54;90195.69;;;12.75;66.18
76074;BME280;64776;42.636;24.358;2023-07-29T05:18:55;90196.03;;;13.16;64.50
76074;BME280;64776;42.636;24.358;2023-07-29T05:21:56;90194.81;;;13.44;63.82
76074;BME280;64776;42.636;24.358;2023-07-29T05:24:57;90192.16;;;13.72;63.07
76074;BME280;64776;42.636;24.358;2023-07-29T05:27:59;90191.88;;;13.92;62.25
76074;BME280;64776;42.636;24.358;2023-07-29T05:31:00;90193.00;;;14.24;61.09
76074;BME280;64776;42.636;24.358;2023-07-29T05:34:01;90189.28;;;14.55;61.69
76074;BME280;64776;42.636;24.358;2023-07-29T05:37:02;90199.88;;;14.88;61.37
76074;BME280;64776;42.636;24.358;2023-07-29T05:40:04;90190.47;;;15.11;59.70
76074;BME280;64776;42.636;24.358;2023-07-29T05:43:06;90204.22;;;15.43;58.22
76074;BME280;64776;42.636;24.358;2023-07-29T05:46:07;90201.59;;;15.67;56.90
76074;BME280;64776;42.636;24.358;2023-07-29T05:49:09;90210.16;;;15.95;57.88
76074;BME280;64776;42.636;24.358;2023-07-29T05:52:09;90209.97;;;16.17;56.10
76074;BME280;64776;42.636;24.358;2023-07-29T05:55:10;90206.47;;;16.47;55.88
76074;BME280;64776;42.636;24.358;2023-07-29T05:58:12;90211.91;;;16.71;55.50
76074;BME280;64776;42.636;24.358;2023-07-29T06:01:13;90204.94;;;16.99;54.88
76074;BME280;64776;42.636;24.358;2023-07-29T06:04:14;90206.31;;;17.25;55.08
76074;BME280;64776;42.636;24.358;2023-07-29T06:07:15;90193.84;;;17.59;54.80
76074;BME280;64776;42.636;24.358;2023-07-29T06:10:16;90197.22;;;17.78;56.23
76074;BME280;64776;42.636;24.358;2023-07-29T06:13:18;90192.00;;;18.12;55.81
76074;BME280;64776;42.636;24.358;2023-07-29T06:16:19;90182.50;;;18.37;55.92
76074;BME280;64776;42.636;24.358;2023-07-29T06:19:20;90182.53;;;18.50;55.01
76074;BME280;64776;42.636;24.358;2023-07-29T06:22:21;90184.59;;;18.83;54.64
76074;BME280;64776;42.636;24.358;2023-07-29T06:25:22;90186.63;;;19.16;53.95
76074;BME280;64776;42.636;24.358;2023-07-29T06:28:24;90182.81;;;19.45;49.46
76074;BME280;64776;42.636;24.358;2023-07-29T06:31:25;90170.59;;;19.86;50.34
76074;BME280;64776;42.636;24.358;2023-07-29T06:34:25;90185.00;;;20.22;48.18
76074;BME280;64776;42.636;24.358;2023-07-29T06:37:26;90175.53;;;20.64;46.20
76074;BME280;64776;42.636;24.358;2023-07-29T06:40:27;90175.25;;;21.03;44.73
76074;BME280;64776;42.636;24.358;2023-07-29T06:43:29;90174.41;;;21.24;44.53
76074;BME280;64776;42.636;24.358;2023-07-29T06:46:30;90179.94;;;21.54;43.82
76074;BME280;64776;42.636;24.358;2023-07-29T06:49:31;90185.09;;;21.80;43.60
76074;BME280;64776;42.636;24.358;2023-07-29T06:52:32;90169.19;;;21.99;42.68
76074;BME280;64776;42.636;24.358;2023-07-29T06:55:32;90182.28;;;22.23;42.41
76074;BME280;64776;42.636;24.358;2023-07-29T06:58:35;90181.38;;;22.21;41.45
76074;BME280;64776;42.636;24.358;2023-07-29T07:01:35;90172.28;;;22.48;41.63
76074;BME280;64776;42.636;24.358;2023-07-29T07:04:36;90178.66;;;22.58;40.79
76074;BME280;64776;42.636;24.358;2023-07-29T07:07:37;90180.09;;;22.59;41.17
76074;BME280;64776;42.636;24.358;2023-07-29T07:10:38;90168.66;;;22.76;40.77
76074;BME280;64776;42.636;24.358;2023-07-29T07:13:40;90172.75;;;23.07;40.86
76074;BME280;64776;42.636;24.358;2023-07-29T07:16:41;90166.56;;;23.22;40.28
76074;BME280;64776;42.636;24.358;2023-07-29T07:19:41;90178.06;;;23.53;39.63
76074;BME280;64776;42.636;24.358;2023-07-29T07:22:42;90183.81;;;23.64;39.43
76074;BME280;64776;42.636;24.358;2023-07-29T07:25:44;90186.66;;;23.81;39.63
76074;BME280;64776;42.636;24.358;2023-07-29T07:28:46;90175.91;;;23.83;38.82
76074;BME280;64776;42.636;24.358;2023-07-29T07:31:50;90175.41;;;23.77;38.86
76074;BME280;64776;42.636;24.358;2023-07-29T07:34:51;90167.34;;;23.87;38.83
76074;BME280;64776;42.636;24.358;2023-07-29T07:37:52;90166.53;;;24.09;38.99
76074;BME280;64776;42.636;24.358;2023-07-29T07:40:53;90176.00;;;24.33;38.13
76074;BME280;64776;42.636;24.358;2023-07-29T07:43:56;90168.53;;;24.58;38.45
76074;BME280;64776;42.636;24.358;2023-07-29T07:46:56;90174.03;;;24.75;37.85
76074;BME280;64776;42.636;24.358;2023-07-29T07:49:59;90176.72;;;24.58;36.89
76074;BME280;64776;42.636;24.358;2023-07-29T07:53:00;90169.44;;;24.36;38.42
76074;BME280;64776;42.636;24.358;2023-07-29T07:56:00;90175.50;;;24.27;37.50
76074;BME280;64776;42.636;24.358;2023-07-29T07:59:02;90172.41;;;24.47;37.67
76074;BME280;64776;42.636;24.358;2023-07-29T08:02:03;90165.66;;;24.73;37.96
76074;BME280;64776;42.636;24.358;2023-07-29T08:05:05;90174.53;;;24.98;37.75
76074;BME280;64776;42.636;24.358;2023-07-29T08:08:06;90170.72;;;25.18;37.13
76074;BME280;64776;42.636;24.358;2023-07-29T08:11:07;90172.28;;;25.38;35.94
76074;BME280;64776;42.636;24.358;2023-07-29T08:14:09;90167.19;;;25.42;35.92
76074;BME280;64776;42.636;24.358;2023-07-29T08:17:09;90168.19;;;25.30;35.81
76074;BME280;64776;42.636;24.358;2023-07-29T08:20:10;90161.06;;;25.34;36.85
76074;BME280;64776;42.636;24.358;2023-07-29T08:23:11;90156.25;;;25.42;36.91
76074;BME280;64776;42.636;24.358;2023-07-29T08:26:12;90158.56;;;25.63;36.53
76074;BME280;64776;42.636;24.358;2023-07-29T08:29:14;90167.66;;;26.19;35.32
76074;BME280;64776;42.636;24.358;2023-07-29T08:32:15;90163.41;;;26.35;34.50
76074;BME280;64776;42.636;24.358;2023-07-29T08:35:16;90161.81;;;26.32;34.57
76074;BME280;64776;42.636;24.358;2023-07-29T08:38:17;90172.13;;;26.24;35.54
76074;BME280;64776;42.636;24.358;2023-07-29T08:41:21;90169.94;;;26.49;34.46
76074;BME280;64776;42.636;24.358;2023-07-29T08:44:30;90161.34;;;26.62;34.03
76074;BME280;64776;42.636;24.358;2023-07-29T08:47:31;90166.38;;;26.56;34.84
76074;BME280;64776;42.636;24.358;2023-07-29T08:50:33;90168.41;;;26.65;34.75
76074;BME280;64776;42.636;24.358;2023-07-29T08:53:34;90167.34;;;26.87;34.40
76074;BME280;64776;42.636;24.358;2023-07-29T08:56:35;90156.16;;;27.12;34.27
76074;BME280;64776;42.636;24.358;2023-07-29T08:59:38;90157.91;;;27.26;33.62
76074;BME280;64776;42.636;24.358;2023-07-29T09:02:41;90157.13;;;27.16;34.29
76074;BME280;64776;42.636;24.358;2023-07-29T09:05:41;90147.03;;;27.00;33.96
76074;BME280;64776;42.636;24.358;2023-07-29T09:08:45;90148.69;;;26.67;34.67
76074;BME280;64776;42.636;24.358;2023-07-29T09:11:45;90148.34;;;26.99;34.15
76074;BME280;64776;42.636;24.358;2023-07-29T09:14:51;90149.81;;;26.63;34.36
76074;BME280;64776;42.636;24.358;2023-07-29T09:17:52;90153.81;;;26.99;34.16
76074;BME280;64776;42.636;24.358;2023-07-29T09:20:53;90150.97;;;27.25;34.43
76074;BME280;64776;42.636;24.358;2023-07-29T09:23:54;90144.75;;;27.73;33.86
76074;BME280;64776;42.636;24.358;2023-07-29T09:26:55;90141.53;;;27.95;34.70
76074;BME280;64776;42.636;24.358;2023-07-29T09:29:57;90149.75;;;28.05;32.63
76074;BME280;64776;42.636;24.358;2023-07-29T09:32:59;90140.63;;;28.62;32.99
76074;BME280;64776;42.636;24.358;2023-07-29T09:36:00;90136.81;;;28.76;32.15
76074;BME280;64776;42.636;24.358;2023-07-29T09:39:01;90142.63;;;28.92;32.17
76074;BME280;64776;42.636;24.358;2023-07-29T09:42:02;90129.84;;;28.75;31.99
76074;BME280;64776;42.636;24.358;2023-07-29T09:45:06;90136.06;;;28.76;31.65
76074;BME280;64776;42.636;24.358;2023-07-29T09:48:07;90134.31;;;28.80;31.34
76074;BME280;64776;42.636;24.358;2023-07-29T09:51:12;90139.84;;;28.71;31.40
76074;BME280;64776;42.636;24.358;2023-07-29T09:54:13;90131.25;;;28.55;30.68
76074;BME280;64776;42.636;24.358;2023-07-29T09:57:14;90126.59;;;28.27;31.14
76074;BME280;64776;42.636;24.358;2023-07-29T10:00:18;90122.59;;;28.18;31.46
76074;BME280;64776;42.636;24.358;2023-07-29T10:03:22;90126.66;;;28.08;31.20
76074;BME280;64776;42.636;24.358;2023-07-29T10:06:23;90121.34;;;28.00;31.01
76074;BME280;64776;42.636;24.358;2023-07-29T10:09:24;90123.16;;;28.57;31.08
76074;BME280;64776;42.636;24.358;2023-07-29T10:12:25;90120.38;;;28.88;30.88
76074;BME280;64776;42.636;24.358;2023-07-29T10:15:29;90127.78;;;28.85;30.87
76074;BME280;64776;42.636;24.358;2023-07-29T10:18:33;90114.31;;;29.53;30.29
76074;BME280;64776;42.636;24.358;2023-07-29T10:21:35;90121.31;;;30.10;29.56
76074;BME280;64776;42.636;24.358;2023-07-29T10:24:39;90112.50;;;30.34;29.80
76074;BME280;64776;42.636;24.358;2023-07-29T10:27:43;90112.75;;;30.62;28.50
76074;BME280;64776;42.636;24.358;2023-07-29T10:30:46;90116.97;;;30.97;28.69
76074;BME280;64776;42.636;24.358;2023-07-29T10:33:48;90101.34;;;31.02;27.69
76074;BME280;64776;42.636;24.358;2023-07-29T10:36:50;90108.69;;;30.97;28.43
76074;BME280;64776;42.636;24.358;2023-07-29T10:39:52;90099.38;;;31.39;27.39
76074;BME280;64776;42.636;24.358;2023-07-29T10:43:01;90103.16;;;31.57;26.84
76074;BME280;64776;42.636;24.358;2023-07-29T10:46:16;90104.50;;;31.81;26.53
76074;BME280;64776;42.636;24.358;2023-07-29T10:49:23;90098.97;;;31.81;26.48
76074;BME280;64776;42.636;24.358;2023-07-29T10:52:32;90092.09;;;31.20;27.20
76074;BME280;64776;42.636;24.358;2023-07-29T10:55:39;90100.19;;;30.70;28.58
76074;BME280;64776;42.636;24.358;2023-07-29T10:58:43;90089.84;;;31.54;28.11
76074;BME280;64776;42.636;24.358;2023-07-29T11:01:51;90090.66;;;31.19;28.25
76074;BME280;64776;42.636;24.358;2023-07-29T11:04:52;90102.34;;;30.60;27.55
76074;BME280;64776;42.636;24.358;2023-07-29T11:07:53;90094.19;;;30.50;27.61
76074;BME280;64776;42.636;24.358;2023-07-29T11:11:05;90100.88;;;30.24;28.17
76074;BME280;64776;42.636;24.358;2023-07-29T11:14:07;90096.59;;;30.44;27.36
76074;BME280;64776;42.636;24.358;2023-07-29T11:17:10;90093.72;;;30.66;27.86
76074;BME280;64776;42.636;24.358;2023-07-29T11:20:11;90086.09;;;31.24;26.48
76074;BME280;64776;42.636;24.358;2023-07-29T11:23:13;90077.31;;;31.27;26.35
76074;BME280;64776;42.636;24.358;2023-07-29T11:26:13;90084.63;;;31.71;26.79
76074;BME280;64776;42.636;24.358;2023-07-29T11:29:16;90085.69;;;30.93;26.91
76074;BME280;64776;42.636;24.358;2023-07-29T11:32:18;90080.03;;;30.10;29.46
76074;BME280;64776;42.636;24.358;2023-07-29T11:35:19;90084.44;;;29.26;30.14
76074;BME280;64776;42.636;24.358;2023-07-29T11:38:21;90078.53;;;28.78;30.70
76074;BME280;64776;42.636;24.358;2023-07-29T11:41:22;90077.66;;;28.75;32.01
76074;BME280;64776;42.636;24.358;2023-07-29T11:44:24;90075.31;;;28.81;30.99
76074;BME280;64776;42.636;24.358;2023-07-29T11:47:27;90072.69;;;28.83;31.92
76074;BME280;64776;42.636;24.358;2023-07-29T11:50:28;90068.72;;;28.96;31.19
76074;BME280;64776;42.636;24.358;2023-07-29T11:53:29;90077.16;;;29.31;31.44
76074;BME280;64776;42.636;24.358;2023-07-29T11:56:30;90071.47;;;29.50;31.17
76074;BME280;64776;42.636;24.358;2023-07-29T11:59:31;90075.31;;;29.45;30.55
76074;BME280;64776;42.636;24.358;2023-07-29T12:02:36;90068.06;;;29.61;30.28
76074;BME280;64776;42.636;24.358;2023-07-29T12:05:38;90069.94;;;29.47;30.28
76074;BME280;64776;42.636;24.358;2023-07-29T12:08:39;90063.09;;;28.94;31.02
76074;BME280;64776;42.636;24.358;2023-07-29T12:11:40;90069.09;;;29.02;30.85
76074;BME280;64776;42.636;24.358;2023-07-29T12:14:44;90067.06;;;29.03;31.46
76074;BME280;64776;42.636;24.358;2023-07-29T12:17:46;90069.97;;;29.26;30.77
76074;BME280;64776;42.636;24.358;2023-07-29T12:20:47;90070.88;;;29.19;30.78
76074;BME280;64776;42.636;24.358;2023-07-29T12:23:52;90067.47;;;28.87;31.76
76074;BME280;64776;42.636;24.358;2023-07-29T12:26:52;90061.59;;;29.56;31.40
76074;BME280;64776;42.636;24.358;2023-07-29T12:29:53;90059.84;;;29.40;30.30
76074;BME280;64776;42.636;24.358;2023-07-29T12:32:55;90053.81;;;29.53;30.09
76074;BME280;64776;42.636;24.358;2023-07-29T12:35:56;90059.94;;;29.63;30.80
76074;BME280;64776;42.636;24.358;2023-07-29T12:38:59;90058.97;;;30.14;29.60
76074;BME280;64776;42.636;24.358;2023-07-29T12:42:00;90056.03;;;30.33;29.04
76074;BME280;64776;42.636;24.358;2023-07-29T12:45:01;90045.16;;;30.84;28.85
76074;BME280;64776;42.636;24.358;2023-07-29T12:48:04;90056.63;;;30.43;29.11
76074;BME280;64776;42.636;24.358;2023-07-29T12:51:04;90054.66;;;30.11;29.48
76074;BME280;64776;42.636;24.358;2023-07-29T12:54:05;90055.63;;;29.27;30.28
76074;BME280;64776;42.636;24.358;2023-07-29T12:57:06;90060.91;;;29.35;30.91
76074;BME280;64776;42.636;24.358;2023-07-29T13:00:08;90054.59;;;29.44;30.65
76074;BME280;64776;42.636;24.358;2023-07-29T13:03:10;90058.34;;;29.48;31.05
76074;BME280;64776;42.636;24.358;2023-07-29T13:06:11;90054.22;;;29.38;30.82
76074;BME280;64776;42.636;24.358;2023-07-29T13:09:12;90058.56;;;28.98;31.11
76074;BME280;64776;42.636;24.358;2023-07-29T13:12:13;90056.34;;;28.85;32.41
76074;BME280;64776;42.636;24.358;2023-07-29T13:15:14;90052.97;;;28.75;31.94
76074;BME280;64776;42.636;24.358;2023-07-29T13:18:16;90058.25;;;28.52;32.37
76074;BME280;64776;42.636;24.358;2023-07-29T13:21:17;90062.81;;;28.17;33.25
76074;BME280;64776;42.636;24.358;2023-07-29T13:24:19;90071.91;;;28.10;33.37
76074;BME280;64776;42.636;24.358;2023-07-29T13:27:20;90074.13;;;28.02;34.02
76074;BME280;64776;42.636;24.358;2023-07-29T13:30:20;90069.69;;;27.78;34.59
76074;BME280;64776;42.636;24.358;2023-07-29T13:33:23;90072.81;;;27.34;34.24
76074;BME280;64776;42.636;24.358;2023-07-29T13:36:23;90073.38;;;27.13;35.26
76074;BME280;64776;42.636;24.358;2023-07-29T13:39:24;90073.38;;;26.94;35.97
76074;BME280;64776;42.636;24.358;2023-07-29T13:42:25;90073.03;;;26.71;35.80
76074;BME280;64776;42.636;24.358;2023-07-29T13:45:26;90080.22;;;26.57;37.48
76074;BME280;64776;42.636;24.358;2023-07-29T13:48:28;90072.00;;;26.47;36.50
76074;BME280;64776;42.636;24.358;2023-07-29T13:51:29;90071.47;;;26.68;37.98
76074;BME280;64776;42.636;24.358;2023-07-29T13:54:29;90073.03;;;26.71;38.16
76074;BME280;64776;42.636;24.358;2023-07-29T13:57:30;90069.78;;;26.73;37.72
76074;BME280;64776;42.636;24.358;2023-07-29T14:00:32;90071.16;;;26.64;37.80
76074;BME280;64776;42.636;24.358;2023-07-29T14:03:34;90063.72;;;26.74;37.15
76074;BME280;64776;42.636;24.358;2023-07-29T14:06:35;90068.69;;;26.49;37.99
76074;BME280;64776;42.636;24.358;2023-07-29T14:09:36;90063.75;;;26.38;38.60
76074;BME280;64776;42.636;24.358;2023-07-29T14:12:37;90066.63;;;26.40;38.84
76074;BME280;64776;42.636;24.358;2023-07-29T14:15:37;90070.09;;;26.31;38.86
76074;BME280;64776;42.636;24.358;2023-07-29T14:18:39;90070.41;;;25.99;39.02
76074;BME280;64776;42.636;24.358;2023-07-29T14:21:40;90060.25;;;26.09;38.68
76074;BME280;64776;42.636;24.358;2023-07-29T14:24:41;90058.25;;;26.19;40.09
76074;BME280;64776;42.636;24.358;2023-07-29T14:27:42;90061.59;;;26.27;38.84
76074;BME280;64776;42.636;24.358;2023-07-29T14:30:43;90069.34;;;26.30;38.70
76074;BME280;64776;42.636;24.358;2023-07-29T14:33:45;90062.31;;;26.37;37.95
76074;BME280;64776;42.636;24.358;2023-07-29T14:36:46;90064.78;;;26.42;38.91
76074;BME280;64776;42.636;24.358;2023-07-29T14:39:47;90070.13;;;26.50;38.55
76074;BME280;64776;42.636;24.358;2023-07-29T14:42:47;90062.84;;;26.72;38.66
76074;BME280;64776;42.636;24.358;2023-07-29T14:45:48;90063.56;;;26.72;40.18
76074;BME280;64776;42.636;24.358;2023-07-29T14:48:50;90059.25;;;26.88;38.79
76074;BME280;64776;42.636;24.358;2023-07-29T14:51:51;90060.53;;;27.06;40.33
76074;BME280;64776;42.636;24.358;2023-07-29T14:54:52;90050.44;;;27.37;39.33
76074;BME280;64776;42.636;24.358;2023-07-29T14:57:53;90057.63;;;27.52;37.97
76074;BME280;64776;42.636;24.358;2023-07-29T15:00:53;90053.31;;;28.08;36.42
76074;BME280;64776;42.636;24.358;2023-07-29T15:03:56;90058.25;;;27.91;36.53
76074;BME280;64776;42.636;24.358;2023-07-29T15:06:56;90050.78;;;27.72;36.70
76074;BME280;64776;42.636;24.358;2023-07-29T15:09:57;90053.16;;;27.57;36.52
76074;BME280;64776;42.636;24.358;2023-07-29T15:12:58;90050.44;;;27.28;36.61
76074;BME280;64776;42.636;24.358;2023-07-29T15:15:59;90053.91;;;27.38;36.41
76074;BME280;64776;42.636;24.358;2023-07-29T15:19:01;90053.63;;;26.96;36.80
76074;BME280;64776;42.636;24.358;2023-07-29T15:22:02;90050.72;;;26.94;37.38
76074;BME280;64776;42.636;24.358;2023-07-29T15:25:04;90055.22;;;26.89;37.00
76074;BME280;64776;42.636;24.358;2023-07-29T15:28:05;90057.88;;;26.60;38.09
76074;BME280;64776;42.636;24.358;2023-07-29T15:31:06;90054.63;;;26.81;38.25
76074;BME280;64776;42.636;24.358;2023-07-29T15:34:08;90055.50;;;26.74;38.54
76074;BME280;64776;42.636;24.358;2023-07-29T15:37:08;90046.56;;;26.83;37.70
76074;BME280;64776;42.636;24.358;2023-07-29T15:40:09;90051.19;;;26.90;38.06
76074;BME280;64776;42.636;24.358;2023-07-29T15:43:10;90050.88;;;26.86;37.57
76074;BME280;64776;42.636;24.358;2023-07-29T15:46:11;90054.78;;;26.93;36.62
76074;BME280;64776;42.636;24.358;2023-07-29T15:49:13;90047.59;;;26.97;37.55
76074;BME280;64776;42.636;24.358;2023-07-29T15:52:14;90048.00;;;27.03;36.96